Airfield :







YOU CAN JOIN US ON...

 
LOGIN :

Register | Disclaimer

   EN    FR    IT 

 









Legend :    VFR   Marginal VFR   IFR   Intensive IFR   Very Intensive IFR
Visi :
Ceiling :
>= 8 km
>= 3000ft
5 to 8 km
1000 to 3000 ft
1500m to 5 km
500 to 1000 ft
800 to 1500m
200 to 500 ft
< 800m
< 200 ft
Symbols :   Thunderstorms  Fog  Heavy snow  Heavy precipitations  Wind > 20 kt






- Airport Elevation : 403 ft
- IATA code : YKG


CYAS - Kangirsuk

CURRENT METAR :
  • 231751Z 13013KT 15SM -RA OVC033 03/01 A2970 RMK SC8 SLP067

EXPIRED METARs :
  • 231721Z 13011KT 15SM OVC031 03/01 A2971 RMK SC8 SLP070
  • 231700Z 13013KT 15SM -RA OVC028 03/01 A2972 RMK SC8 SLP075
  • 231600Z 13011KT 13SM -RA FEW023 OVC100 02/01 A2974 RMK SC2AS6 SLP081
  • 231500Z 12011KT 15SM -RA FEW033 OVC075 02/00 A2976 RMK SC2AS6 SLP088

TAF TAF CYAS
Valid from the 23 at 14:00 until the 23 at 21:00 UTC


231340Z 2314/2321 12018KT P6SM SCT060 OVC120
FM231500 14020KT P6SM -RA BKN030 OVC060
TEMPO 2315/2321 4SM -RA BR BKN015 OVC030 RMK NXT FCST WILL BE ISSUED AT 241345Z



MET'MAP, your aeronautical weather chart ! - Copyright ORBIFLY December 2007 - Disclaimer

ORBIFLY MET'MAP TEAM :

Programming & Development : Alexandra Zaïnal
Concept & Development : Baudouin d'Aumeries
Co-Development & Prog : Marc-Olivier Méhu
Technical & hardware support : Manuel Goepfert

Contact : metmap@orbifly.com




SOURCES & CREDITS :

   NOAA